createdAt,value
2018-06-29T00:00:47.510Z,0
2018-06-29T00:01:56.371Z,0
2018-06-29T00:03:05.236Z,0
2018-06-29T00:04:14.723Z,0
2018-06-29T00:05:23.921Z,0
2018-06-29T00:06:32.790Z,0
2018-06-29T00:07:41.703Z,0
2018-06-29T00:08:50.848Z,0
2018-06-29T00:10:00.341Z,0
2018-06-29T00:11:09.207Z,0
2018-06-29T00:12:18.348Z,0
2018-06-29T00:13:27.213Z,0
2018-06-29T00:14:36.080Z,0
2018-06-29T00:15:45.748Z,0
2018-06-29T00:16:54.613Z,0
2018-06-29T00:18:03.754Z,0
2018-06-29T00:19:12.893Z,0
2018-06-29T00:20:21.753Z,0
2018-06-29T00:21:30.618Z,0
2018-06-29T00:22:39.481Z,0
2018-06-29T00:23:48.344Z,0
2018-06-29T00:24:57.207Z,0
2018-06-29T00:26:06.069Z,0
2018-06-29T00:27:15.260Z,0
2018-06-29T00:28:24.122Z,0
2018-06-29T00:29:33.541Z,0
2018-06-29T00:30:42.407Z,0
2018-06-29T00:31:51.270Z,0
2018-06-29T00:33:00.129Z,0
2018-06-29T00:34:08.990Z,0
2018-06-29T00:35:17.853Z,0
2018-06-29T00:36:30.645Z,0
2018-06-29T00:37:39.785Z,0
2018-06-29T00:38:49.199Z,0
2018-06-29T00:39:58.060Z,0
2018-06-29T00:41:06.924Z,0
2018-06-29T00:42:16.278Z,0
2018-06-29T00:43:25.447Z,0
2018-06-29T00:44:34.309Z,0
2018-06-29T00:45:43.174Z,0
2018-06-29T00:46:52.040Z,0
2018-06-29T00:48:01.285Z,0
2018-06-29T00:49:10.044Z,0
2018-06-29T00:50:19.180Z,0
2018-06-29T00:51:28.042Z,0
2018-06-29T00:52:37.183Z,0
2018-06-29T00:53:46.044Z,0
2018-06-29T00:54:54.909Z,0
2018-06-29T00:56:04.195Z,0
2018-06-29T00:57:13.333Z,0
2018-06-29T00:58:22.192Z,0
2018-06-29T00:59:31.054Z,0
2018-06-29T01:00:39.918Z,0
2018-06-29T01:01:48.837Z,0
2018-06-29T01:02:57.700Z,0
2018-06-29T01:04:06.561Z,0
2018-06-29T01:05:15.425Z,0
2018-06-29T01:06:24.560Z,0
2018-06-29T01:07:33.423Z,0
2018-06-29T01:08:42.285Z,0
2018-06-29T01:09:51.427Z,0
2018-06-29T01:11:00.289Z,0
2018-06-29T01:12:09.150Z,0
2018-06-29T01:13:18.016Z,0
2018-06-29T01:14:26.880Z,0
2018-06-29T01:15:35.742Z,0
2018-06-29T01:16:44.882Z,0
2018-06-29T01:17:53.746Z,0
2018-06-29T01:19:02.666Z,0
2018-06-29T01:20:11.523Z,0
2018-06-29T01:21:20.664Z,0
2018-06-29T01:22:29.528Z,0
2018-06-29T01:23:38.951Z,0
2018-06-29T01:24:47.815Z,0
2018-06-29T01:25:56.953Z,0
2018-06-29T01:27:05.917Z,0
2018-06-29T01:28:14.776Z,0
2018-06-29T01:29:23.641Z,0
2018-06-29T01:30:32.654Z,0
2018-06-29T01:31:41.522Z,0
2018-06-29T01:32:50.387Z,0
2018-06-29T01:33:59.248Z,0
2018-06-29T01:35:08.112Z,0
2018-06-29T01:36:16.976Z,0
2018-06-29T01:37:25.844Z,0
2018-06-29T01:38:34.700Z,0
2018-06-29T01:39:43.563Z,0
2018-06-29T01:40:52.422Z,0
2018-06-29T01:42:01.284Z,0
2018-06-29T01:43:10.147Z,0
2018-06-29T01:44:19.011Z,0
2018-06-29T01:45:27.871Z,0
2018-06-29T01:46:36.736Z,0
2018-06-29T01:47:45.695Z,0
2018-06-29T01:48:54.556Z,0
2018-06-29T01:50:03.693Z,0
2018-06-29T01:51:12.556Z,0
2018-06-29T01:52:21.424Z,0
2018-06-29T01:53:30.917Z,0
2018-06-29T01:54:39.778Z,0
2018-06-29T01:55:48.641Z,0
2018-06-29T01:56:57.778Z,0
2018-06-29T01:58:06.918Z,0
2018-06-29T01:59:16.113Z,0
2018-06-29T02:00:24.978Z,0
2018-06-29T02:01:33.842Z,0
2018-06-29T02:02:42.702Z,0
2018-06-29T02:03:51.563Z,0
2018-06-29T02:05:00.704Z,0
2018-06-29T02:06:09.566Z,0
2018-06-29T02:07:18.430Z,0
2018-06-29T02:08:27.570Z,0
2018-06-29T02:09:36.471Z,0
2018-06-29T02:10:45.394Z,0
2018-06-29T02:11:54.254Z,0
2018-06-29T02:13:03.115Z,0
2018-06-29T02:14:11.975Z,0
2018-06-29T02:15:21.112Z,0
2018-06-29T02:16:30.025Z,0
2018-06-29T02:17:38.885Z,0
2018-06-29T02:18:48.023Z,0
2018-06-29T02:19:56.888Z,0
2018-06-29T02:21:06.035Z,0
2018-06-29T02:22:14.894Z,0
2018-06-29T02:23:23.754Z,0
2018-06-29T02:24:32.615Z,0
2018-06-29T02:25:41.475Z,0
2018-06-29T02:26:50.341Z,0
2018-06-29T02:27:59.245Z,0
2018-06-29T02:29:08.113Z,0
2018-06-29T02:30:16.979Z,0
2018-06-29T02:31:25.843Z,0
2018-06-29T02:32:35.277Z,0
2018-06-29T02:33:44.292Z,0
2018-06-29T02:34:53.437Z,0
2018-06-29T02:36:02.581Z,0
2018-06-29T02:37:11.731Z,0
2018-06-29T02:38:20.873Z,0
2018-06-29T02:39:30.339Z,0
2018-06-29T02:40:39.206Z,0
2018-06-29T02:41:48.066Z,0
2018-06-29T02:42:57.204Z,0
2018-06-29T02:44:06.347Z,0
2018-06-29T02:45:15.788Z,0
2018-06-29T02:46:24.655Z,0
2018-06-29T02:47:34.084Z,0
2018-06-29T02:48:43.502Z,0
2018-06-29T02:49:52.370Z,0
2018-06-29T02:51:01.226Z,0
2018-06-29T02:52:10.365Z,0
2018-06-29T02:53:19.235Z,0
2018-06-29T02:54:28.100Z,5
2018-06-29T02:55:37.524Z,5
2018-06-29T02:56:46.387Z,5
2018-06-29T02:57:55.532Z,5
2018-06-29T02:59:04.952Z,5
2018-06-29T03:00:14.107Z,5
2018-06-29T03:01:22.965Z,5
2018-06-29T03:02:31.877Z,5
2018-06-29T03:03:40.748Z,10
2018-06-29T03:04:49.614Z,10
2018-06-29T03:05:58.482Z,10
2018-06-29T03:07:07.627Z,10
2018-06-29T03:08:16.486Z,10
2018-06-29T03:09:25.626Z,10
2018-06-29T03:10:34.492Z,15
2018-06-29T03:11:43.625Z,15
2018-06-29T03:12:53.322Z,15
2018-06-29T03:14:02.564Z,15
2018-06-29T03:15:11.980Z,15
2018-06-29T03:16:20.846Z,20
2018-06-29T03:17:29.707Z,20
2018-06-29T03:18:38.843Z,20
2018-06-29T03:19:48.028Z,20
2018-06-29T03:20:57.438Z,20
2018-06-29T03:22:06.305Z,25
2018-06-29T03:23:15.496Z,25
2018-06-29T03:24:24.357Z,25
2018-06-29T03:25:33.568Z,25
2018-06-29T03:26:42.430Z,30
2018-06-29T03:27:51.311Z,30
2018-06-29T03:29:00.180Z,35
2018-06-29T03:30:09.048Z,35
2018-06-29T03:31:19.182Z,35
2018-06-29T03:32:28.319Z,40
2018-06-29T03:33:37.179Z,40
2018-06-29T03:34:46.041Z,40
2018-06-29T03:35:54.906Z,45
2018-06-29T03:37:04.115Z,45
2018-06-29T03:38:12.976Z,45
2018-06-29T03:39:21.838Z,50
2018-06-29T03:40:31.665Z,50
2018-06-29T03:41:40.429Z,50
2018-06-29T03:42:49.640Z,55
2018-06-29T03:43:59.051Z,55
2018-06-29T03:45:07.918Z,55
2018-06-29T03:46:16.775Z,55
2018-06-29T03:47:25.642Z,60
2018-06-29T03:48:34.652Z,60
2018-06-29T03:49:43.663Z,60
2018-06-29T03:50:52.522Z,65
2018-06-29T03:52:01.386Z,65
2018-06-29T03:53:10.519Z,65
2018-06-29T03:54:19.430Z,65
2018-06-29T03:55:28.857Z,70
2018-06-29T03:56:37.718Z,70
2018-06-29T03:57:47.411Z,70
2018-06-29T03:58:56.270Z,70
2018-06-29T04:00:05.282Z,75
2018-06-29T04:01:14.145Z,75
2018-06-29T04:02:23.007Z,75
2018-06-29T04:03:31.869Z,75
2018-06-29T04:04:40.731Z,80
2018-06-29T04:05:49.745Z,80
2018-06-29T04:06:58.602Z,80
2018-06-29T04:08:07.464Z,80
2018-06-29T04:09:16.882Z,80
2018-06-29T04:10:26.023Z,85
2018-06-29T04:11:34.984Z,85
2018-06-29T04:12:43.847Z,85
2018-06-29T04:13:52.710Z,85
2018-06-29T04:15:01.569Z,90
2018-06-29T04:16:10.428Z,90
2018-06-29T04:17:19.889Z,90
2018-06-29T04:18:28.752Z,90
2018-06-29T04:19:37.893Z,90
2018-06-29T04:20:46.754Z,90
2018-06-29T04:21:55.621Z,95
2018-06-29T04:23:04.677Z,95
2018-06-29T04:24:13.539Z,95
2018-06-29T04:25:22.678Z,95
2018-06-29T04:26:31.577Z,95
2018-06-29T04:27:40.402Z,95
2018-06-29T04:28:49.618Z,95
2018-06-29T04:29:58.758Z,95
2018-06-29T04:31:07.894Z,95
2018-06-29T04:32:16.762Z,95
2018-06-29T04:33:25.901Z,95
2018-06-29T04:34:34.912Z,100
2018-06-29T04:35:44.060Z,100
2018-06-29T04:36:52.920Z,100
2018-06-29T04:38:01.787Z,100
2018-06-29T04:39:10.922Z,100
2018-06-29T04:40:19.936Z,100
2018-06-29T04:41:28.796Z,100
2018-06-29T04:42:37.664Z,105
2018-06-29T04:43:46.802Z,105
2018-06-29T04:44:55.665Z,105
2018-06-29T04:46:04.879Z,105
2018-06-29T04:47:13.744Z,105
2018-06-29T04:48:22.605Z,105
2018-06-29T04:49:32.141Z,105
2018-06-29T04:50:41.002Z,110
2018-06-29T04:51:49.914Z,110
2018-06-29T04:52:58.779Z,110
2018-06-29T04:54:07.641Z,110
2018-06-29T04:55:16.780Z,110
2018-06-29T04:56:25.642Z,110
2018-06-29T04:57:35.133Z,110
2018-06-29T04:58:43.996Z,110
2018-06-29T04:59:52.857Z,110
2018-06-29T05:01:01.761Z,115
2018-06-29T05:02:10.911Z,115
2018-06-29T05:03:19.878Z,115
2018-06-29T05:04:28.735Z,115
2018-06-29T05:05:37.596Z,115
2018-06-29T05:06:46.457Z,115
2018-06-29T05:07:55.320Z,115
2018-06-29T05:09:04.616Z,115
2018-06-29T05:10:13.760Z,115
2018-06-29T05:11:23.189Z,120
2018-06-29T05:12:32.058Z,120
2018-06-29T05:13:40.920Z,120
2018-06-29T05:14:49.884Z,120
2018-06-29T05:15:58.743Z,120
2018-06-29T05:17:07.606Z,120
2018-06-29T05:18:16.474Z,120
2018-06-29T05:19:25.615Z,120
2018-06-29T05:20:34.481Z,120
2018-06-29T05:21:43.345Z,120
2018-06-29T05:22:52.490Z,125
2018-06-29T05:24:01.354Z,125
2018-06-29T05:25:10.221Z,125
2018-06-29T05:26:19.087Z,125
2018-06-29T05:27:27.947Z,125
2018-06-29T05:28:37.466Z,125
2018-06-29T05:29:46.271Z,125
2018-06-29T05:30:55.136Z,125
2018-06-29T05:32:04.151Z,125
2018-06-29T05:33:13.013Z,125
2018-06-29T05:34:21.876Z,125
2018-06-29T05:35:30.742Z,125
2018-06-29T05:36:39.607Z,125
2018-06-29T05:37:48.747Z,130
2018-06-29T05:38:57.610Z,130
2018-06-29T05:40:06.489Z,130
2018-06-29T05:41:15.353Z,130
2018-06-29T05:42:24.219Z,130
2018-06-29T05:43:33.180Z,130
2018-06-29T05:44:42.043Z,130
2018-06-29T05:45:50.908Z,130
2018-06-29T05:47:00.184Z,130
2018-06-29T05:48:08.952Z,130
2018-06-29T05:49:18.029Z,130
2018-06-29T05:50:27.222Z,130
2018-06-29T05:51:36.085Z,130
2018-06-29T05:52:44.948Z,135
2018-06-29T05:53:54.087Z,135
2018-06-29T05:55:03.001Z,135
2018-06-29T05:56:11.862Z,135
2018-06-29T05:57:20.727Z,135
2018-06-29T05:58:29.592Z,135
2018-06-29T05:59:38.731Z,135
2018-06-29T06:00:47.646Z,135
2018-06-29T06:01:56.527Z,135
2018-06-29T06:03:05.370Z,135
2018-06-29T06:04:14.232Z,135
2018-06-29T06:05:23.102Z,135
2018-06-29T06:06:32.244Z,135
2018-06-29T06:07:41.108Z,135
2018-06-29T06:08:49.971Z,135
2018-06-29T06:09:58.894Z,135
2018-06-29T06:11:07.700Z,140
2018-06-29T06:12:17.186Z,140
2018-06-29T06:13:26.721Z,140
2018-06-29T06:14:35.571Z,140
2018-06-29T06:15:44.437Z,140
2018-06-29T06:16:53.597Z,140
2018-06-29T06:18:03.020Z,140
2018-06-29T06:19:12.173Z,140
2018-06-29T06:20:21.067Z,140
2018-06-29T06:21:29.932Z,140
2018-06-29T06:22:40.117Z,140
2018-06-29T06:23:49.739Z,140
2018-06-29T06:24:59.619Z,140
2018-06-29T06:26:08.488Z,140
2018-06-29T06:27:17.352Z,140
2018-06-29T06:28:26.500Z,145
2018-06-29T06:29:35.362Z,145
2018-06-29T06:30:44.605Z,145
2018-06-29T06:31:53.465Z,145
2018-06-29T06:33:02.489Z,145
2018-06-29T06:34:11.345Z,145
2018-06-29T06:35:20.487Z,145
2018-06-29T06:36:29.350Z,145
2018-06-29T06:37:38.488Z,145
2018-06-29T06:38:47.659Z,145
2018-06-29T06:39:56.522Z,145
2018-06-29T06:41:05.387Z,145
2018-06-29T06:42:14.255Z,145
2018-06-29T06:43:23.368Z,145
2018-06-29T06:44:32.232Z,150
2018-06-29T06:45:41.096Z,150
2018-06-29T06:46:50.253Z,150
2018-06-29T06:47:59.118Z,150
2018-06-29T06:49:08.081Z,150
2018-06-29T06:50:16.947Z,150
2018-06-29T06:51:25.811Z,145
2018-06-29T06:52:34.676Z,145
2018-06-29T06:53:43.997Z,145
2018-06-29T06:54:53.130Z,145
2018-06-29T06:56:02.270Z,145
2018-06-29T06:57:11.135Z,145
2018-06-29T06:58:19.999Z,145
2018-06-29T06:59:29.208Z,150
2018-06-29T07:00:38.451Z,150
2018-06-29T07:01:47.332Z,150
2018-06-29T07:02:56.199Z,150
2018-06-29T07:04:05.343Z,150
2018-06-29T07:05:14.206Z,150
2018-06-29T07:06:23.175Z,150
2018-06-29T07:07:32.036Z,150
2018-06-29T07:08:41.181Z,150
2018-06-29T07:09:50.320Z,150
2018-06-29T07:10:59.187Z,150
2018-06-29T07:12:08.156Z,150
2018-06-29T07:13:17.299Z,155
2018-06-29T07:14:26.167Z,155
2018-06-29T07:15:35.040Z,155
2018-06-29T07:16:43.906Z,155
2018-06-29T07:17:53.055Z,155
2018-06-29T07:19:02.480Z,155
2018-06-29T07:20:11.350Z,155
2018-06-29T07:21:20.493Z,155
2018-06-29T07:22:29.643Z,155
2018-06-29T07:23:38.758Z,155
2018-06-29T07:24:47.624Z,155
2018-06-29T07:25:56.488Z,160
2018-06-29T07:27:05.349Z,160
2018-06-29T07:28:14.212Z,160
2018-06-29T07:29:23.227Z,160
2018-06-29T07:30:32.092Z,160
2018-06-29T07:31:41.241Z,160
2018-06-29T07:32:50.105Z,155
2018-06-29T07:33:59.270Z,160
2018-06-29T07:35:08.188Z,160
2018-06-29T07:36:17.338Z,160
2018-06-29T07:37:26.203Z,160
2018-06-29T07:38:35.074Z,165
2018-06-29T07:39:44.274Z,165
2018-06-29T07:40:53.190Z,165
2018-06-29T07:42:02.053Z,165
2018-06-29T07:43:11.199Z,165
2018-06-29T07:44:20.339Z,165
2018-06-29T07:45:29.205Z,165
2018-06-29T07:46:38.076Z,165
2018-06-29T07:47:47.215Z,165
2018-06-29T07:48:56.080Z,165
2018-06-29T07:50:04.945Z,165
2018-06-29T07:51:13.811Z,165
2018-06-29T07:52:22.725Z,165
2018-06-29T07:53:31.591Z,165
2018-06-29T07:54:41.020Z,165
2018-06-29T07:55:49.884Z,170
2018-06-29T07:56:58.748Z,170
2018-06-29T07:58:08.768Z,170
2018-06-29T07:59:17.602Z,170
2018-06-29T08:00:26.521Z,170
2018-06-29T08:01:35.663Z,170
2018-06-29T08:02:44.815Z,170
2018-06-29T08:03:54.215Z,170
2018-06-29T08:05:03.415Z,170
2018-06-29T08:06:12.294Z,170
2018-06-29T08:07:21.435Z,170
2018-06-29T08:08:30.298Z,170
2018-06-29T08:09:39.550Z,170
2018-06-29T08:10:48.417Z,170
2018-06-29T08:11:57.283Z,170
2018-06-29T08:13:06.151Z,170
2018-06-29T08:14:15.017Z,165
2018-06-29T08:15:23.931Z,165
2018-06-29T08:16:32.795Z,165
2018-06-29T08:17:41.668Z,165
2018-06-29T08:18:50.530Z,165
2018-06-29T08:19:59.672Z,165
2018-06-29T08:21:08.586Z,165
2018-06-29T08:22:17.456Z,165
2018-06-29T08:23:26.318Z,170
2018-06-29T08:24:35.188Z,170
2018-06-29T08:25:44.340Z,170
2018-06-29T08:26:53.258Z,170
2018-06-29T08:28:02.127Z,170
2018-06-29T08:29:11.271Z,170
2018-06-29T08:30:20.147Z,170
2018-06-29T08:31:29.010Z,170
2018-06-29T08:32:38.523Z,170
2018-06-29T08:33:47.378Z,170
2018-06-29T08:34:56.247Z,175
2018-06-29T08:36:05.114Z,175
2018-06-29T08:37:14.255Z,180
2018-06-29T08:38:23.171Z,185
2018-06-29T08:39:32.038Z,190
2018-06-29T08:40:40.904Z,190
2018-06-29T08:41:49.774Z,190
2018-06-29T08:42:58.633Z,200
2018-06-29T08:44:08.304Z,205
2018-06-29T08:45:17.102Z,215
2018-06-29T08:46:25.981Z,215
2018-06-29T08:47:34.848Z,215
2018-06-29T08:48:43.726Z,220
2018-06-29T08:49:52.797Z,230
2018-06-29T08:51:01.945Z,225
2018-06-29T08:52:10.842Z,230
2018-06-29T08:53:19.718Z,235
2018-06-29T08:54:28.841Z,240
2018-06-29T08:55:37.758Z,240
2018-06-29T08:56:46.622Z,240
2018-06-29T08:57:55.490Z,245
2018-06-29T08:59:04.357Z,235
2018-06-29T09:00:13.224Z,230
2018-06-29T09:01:22.648Z,225
2018-06-29T09:02:31.521Z,220
2018-06-29T09:03:40.657Z,215
2018-06-29T09:04:49.820Z,210
2018-06-29T09:05:58.668Z,200
2018-06-29T09:07:07.731Z,205
2018-06-29T09:08:16.887Z,200
2018-06-29T09:09:25.754Z,200
2018-06-29T09:10:34.624Z,195
2018-06-29T09:11:43.816Z,200
2018-06-29T09:12:53.011Z,195
2018-06-29T09:14:01.876Z,200
2018-06-29T09:15:11.028Z,200
2018-06-29T09:16:20.170Z,200
2018-06-29T09:17:29.034Z,205
2018-06-29T09:18:38.003Z,210
2018-06-29T09:19:46.873Z,215
2018-06-29T09:20:55.742Z,210
2018-06-29T09:22:04.610Z,210
2018-06-29T09:23:13.475Z,210
2018-06-29T09:24:22.613Z,210
2018-06-29T09:25:31.803Z,205
2018-06-29T09:26:40.887Z,205
2018-06-29T09:27:49.753Z,205
2018-06-29T09:28:58.616Z,205
2018-06-29T09:30:07.997Z,200
2018-06-29T09:31:16.864Z,200
2018-06-29T09:32:26.297Z,200
2018-06-29T09:33:35.164Z,200
2018-06-29T09:34:44.026Z,200
2018-06-29T09:35:53.044Z,200
2018-06-29T09:37:01.911Z,200
2018-06-29T09:38:10.780Z,200
2018-06-29T09:39:19.647Z,200
2018-06-29T09:40:28.513Z,205
2018-06-29T09:41:37.713Z,205
2018-06-29T09:42:46.582Z,205
2018-06-29T09:43:55.724Z,205
2018-06-29T09:45:04.692Z,205
2018-06-29T09:46:13.559Z,205
2018-06-29T09:47:23.057Z,205
2018-06-29T09:48:31.929Z,205
2018-06-29T09:49:40.787Z,210
2018-06-29T09:50:49.654Z,210
2018-06-29T09:51:58.802Z,210
2018-06-29T09:53:07.818Z,210
2018-06-29T09:54:16.685Z,210
2018-06-29T09:55:25.552Z,210
2018-06-29T09:56:34.421Z,210
2018-06-29T09:57:43.288Z,215
2018-06-29T09:58:52.207Z,215
2018-06-29T10:00:01.073Z,215
2018-06-29T10:01:10.398Z,215
2018-06-29T10:02:19.636Z,220
2018-06-29T10:03:28.501Z,220
2018-06-29T10:04:37.467Z,220
2018-06-29T10:05:46.618Z,220
2018-06-29T10:06:55.765Z,220
2018-06-29T10:08:04.635Z,220
2018-06-29T10:09:13.781Z,220
2018-06-29T10:10:22.998Z,220
2018-06-29T10:11:31.864Z,220
2018-06-29T10:12:40.745Z,220
2018-06-29T10:13:49.887Z,225
2018-06-29T10:14:58.753Z,225
2018-06-29T10:16:07.771Z,225
2018-06-29T10:17:16.639Z,225
2018-06-29T10:18:25.780Z,230
2018-06-29T10:19:35.025Z,225
2018-06-29T10:20:43.804Z,225
2018-06-29T10:21:52.725Z,225
2018-06-29T10:23:01.593Z,225
2018-06-29T10:24:11.135Z,230
2018-06-29T10:25:20.059Z,230
2018-06-29T10:26:28.809Z,230
2018-06-29T10:27:37.822Z,230
2018-06-29T10:28:46.690Z,230
2018-06-29T10:29:56.106Z,230
2018-06-29T10:31:04.971Z,235
2018-06-29T10:32:13.837Z,235
2018-06-29T10:33:22.857Z,230
2018-06-29T10:34:31.723Z,230
2018-06-29T10:35:40.589Z,230
2018-06-29T10:36:49.528Z,230
2018-06-29T10:37:58.603Z,230
2018-06-29T10:39:07.619Z,230
2018-06-29T10:40:16.485Z,230
2018-06-29T10:41:25.362Z,225
2018-06-29T10:42:34.225Z,225
2018-06-29T10:43:43.091Z,225
2018-06-29T10:44:53.363Z,225
2018-06-29T10:46:02.220Z,225
2018-06-29T10:47:11.363Z,225
2018-06-29T10:48:20.509Z,230
2018-06-29T10:49:29.377Z,235
2018-06-29T10:50:38.295Z,230
2018-06-29T10:51:47.440Z,235
2018-06-29T10:52:56.414Z,235
2018-06-29T10:54:05.573Z,235
2018-06-29T10:55:14.716Z,240
2018-06-29T10:56:23.687Z,245
2018-06-29T10:57:32.554Z,240
2018-06-29T10:58:42.033Z,240
2018-06-29T10:59:50.888Z,235
2018-06-29T11:00:59.757Z,240
2018-06-29T11:02:08.674Z,245
2018-06-29T11:03:17.543Z,250
2018-06-29T11:04:26.684Z,255
2018-06-29T11:05:35.585Z,260
2018-06-29T11:06:44.416Z,255
2018-06-29T11:07:53.535Z,265
2018-06-29T11:09:02.401Z,260
2018-06-29T11:10:11.319Z,265
2018-06-29T11:11:20.188Z,260
2018-06-29T11:12:29.331Z,265
2018-06-29T11:13:38.631Z,260
2018-06-29T11:14:47.496Z,260
2018-06-29T11:15:56.361Z,260
2018-06-29T11:17:05.230Z,265
2018-06-29T11:18:14.376Z,270
2018-06-29T11:19:23.337Z,275
2018-06-29T11:20:32.204Z,275
2018-06-29T11:21:41.071Z,275
2018-06-29T11:22:49.938Z,275
2018-06-29T11:23:59.081Z,275
2018-06-29T11:25:08.370Z,275
2018-06-29T11:26:17.240Z,270
2018-06-29T11:27:26.392Z,270
2018-06-29T11:28:35.260Z,275
2018-06-29T11:29:44.409Z,285
2018-06-29T11:30:53.617Z,285
2018-06-29T11:32:02.485Z,285
2018-06-29T11:33:11.352Z,285
2018-06-29T11:34:20.222Z,285
2018-06-29T11:35:29.644Z,290
2018-06-29T11:36:38.720Z,290
2018-06-29T11:37:47.527Z,290
2018-06-29T11:38:56.394Z,290
2018-06-29T11:40:05.259Z,290
2018-06-29T11:41:14.410Z,290
2018-06-29T11:42:23.878Z,295
2018-06-29T11:43:33.021Z,295
2018-06-29T11:44:41.887Z,295
2018-06-29T11:45:51.031Z,300
2018-06-29T11:47:00.176Z,300
2018-06-29T11:48:09.392Z,300
2018-06-29T11:49:18.543Z,305
2018-06-29T11:50:27.411Z,310
2018-06-29T11:51:36.281Z,310
2018-06-29T11:52:45.148Z,320
2018-06-29T11:53:54.219Z,330
2018-06-29T11:55:03.089Z,340
2018-06-29T11:56:11.958Z,360
2018-06-29T11:57:20.825Z,1060
2018-06-29T11:58:29.976Z,2810
2018-06-29T11:59:38.896Z,3230
2018-06-29T12:00:47.764Z,3245
2018-06-29T12:01:56.633Z,3180
2018-06-29T12:03:05.499Z,3365
2018-06-29T12:04:14.377Z,3225
2018-06-29T12:05:23.394Z,3115
2018-06-29T12:06:32.541Z,3375
2018-06-29T12:07:41.412Z,3410
2018-06-29T12:08:50.282Z,3295
2018-06-29T12:09:59.154Z,3245
2018-06-29T12:11:08.178Z,3070
2018-06-29T12:12:17.051Z,3415
2018-06-29T12:13:25.928Z,3385
2018-06-29T12:14:35.630Z,3595
2018-06-29T12:15:44.510Z,3295
2018-06-29T12:16:54.013Z,3545
2018-06-29T12:18:02.885Z,3775
2018-06-29T12:19:11.858Z,3620
2018-06-29T12:20:21.010Z,3505
2018-06-29T12:21:29.883Z,3535
2018-06-29T12:22:38.906Z,3640
2018-06-29T12:23:47.782Z,3595
2018-06-29T12:24:56.654Z,3900
2018-06-29T12:26:05.806Z,3825
2018-06-29T12:27:14.913Z,3700
2018-06-29T12:28:24.224Z,3925
2018-06-29T12:29:33.651Z,3760
2018-06-29T12:30:42.529Z,3625
2018-06-29T12:31:51.686Z,3520
2018-06-29T12:33:00.833Z,3680
2018-06-29T12:34:09.811Z,3745
2018-06-29T12:35:18.688Z,3525
2018-06-29T12:36:27.841Z,3455
2018-06-29T12:37:36.717Z,3590
2018-06-29T12:38:45.598Z,3515
2018-06-29T12:39:54.575Z,3695
2018-06-29T12:41:03.732Z,3565
2018-06-29T12:42:12.611Z,3500
2018-06-29T12:43:21.488Z,3500
2018-06-29T12:44:30.644Z,3455
2018-06-29T12:45:39.901Z,3420
2018-06-29T12:46:48.774Z,3690
2018-06-29T12:47:57.656Z,3805
2018-06-29T12:49:06.531Z,3665
2018-06-29T12:50:15.409Z,3765
2018-06-29T12:51:24.408Z,3775
2018-06-29T12:52:33.214Z,3635
2018-06-29T12:53:42.090Z,3820
2018-06-29T12:54:50.965Z,3480
2018-06-29T12:55:59.845Z,3230
2018-06-29T12:57:09.355Z,3705
2018-06-29T12:58:18.233Z,3855
2018-06-29T12:59:27.390Z,3805
2018-06-29T13:00:36.269Z,3855
2018-06-29T13:01:45.428Z,3810
2018-06-29T13:02:54.356Z,3700
2018-06-29T13:04:03.231Z,3595
2018-06-29T13:05:12.149Z,3690
2018-06-29T13:06:20.991Z,3740
2018-06-29T13:07:29.875Z,3885
2018-06-29T13:08:38.751Z,3785
2018-06-29T13:09:47.630Z,3955
2018-06-29T13:10:56.508Z,3810
2018-06-29T13:12:05.384Z,3705
2018-06-29T13:13:14.592Z,3840
2018-06-29T13:14:23.969Z,3880
2018-06-29T13:15:33.141Z,3685
2018-06-29T13:16:42.299Z,3655
2018-06-29T13:17:51.453Z,3755
2018-06-29T13:19:00.335Z,3880
2018-06-29T13:20:09.851Z,3690
2018-06-29T13:21:18.735Z,3750
2018-06-29T13:22:27.612Z,3695
2018-06-29T13:23:36.492Z,3785
2018-06-29T13:24:45.393Z,3780
2018-06-29T13:25:54.632Z,3705
2018-06-29T13:27:03.787Z,3735
2018-06-29T13:28:12.665Z,3625
2018-06-29T13:29:21.544Z,3635
2018-06-29T13:30:30.425Z,3870
2018-06-29T13:31:39.559Z,3670
2018-06-29T13:32:48.431Z,3760
2018-06-29T13:33:57.311Z,3735
2018-06-29T13:35:06.188Z,3750
2018-06-29T13:36:15.171Z,3715
2018-06-29T13:37:24.793Z,3815
2018-06-29T13:38:33.674Z,4395
2018-06-29T13:39:42.553Z,3730
2018-06-29T13:40:51.434Z,3725
2018-06-29T13:42:00.592Z,3790
2018-06-29T13:43:09.484Z,3820
2018-06-29T13:44:18.641Z,3575
2018-06-29T13:45:27.524Z,3750
2018-06-29T13:46:36.683Z,3980
2018-06-29T13:47:45.564Z,3715
2018-06-29T13:48:54.504Z,3915
2018-06-29T13:50:04.213Z,3905
2018-06-29T13:51:13.096Z,3870
2018-06-29T13:52:21.977Z,3895
2018-06-29T13:53:30.858Z,3800
2018-06-29T13:54:40.016Z,3815
2018-06-29T13:55:49.174Z,3910
2018-06-29T13:56:58.055Z,4260
2018-06-29T13:58:06.932Z,4125
2018-06-29T13:59:15.811Z,4005
2018-06-29T14:00:25.044Z,3905
2018-06-29T14:01:33.929Z,4090
2018-06-29T14:02:43.092Z,3860
2018-06-29T14:03:51.965Z,3840
2018-06-29T14:05:01.125Z,3940
2018-06-29T14:06:10.333Z,3710
2018-06-29T14:07:19.213Z,3650
2018-06-29T14:08:28.096Z,3830
2018-06-29T14:09:36.977Z,3870
2018-06-29T14:10:45.897Z,3765
2018-06-29T14:11:54.789Z,3720
2018-06-29T14:13:03.946Z,4045
2018-06-29T14:14:12.827Z,4115
2018-06-29T14:15:21.709Z,4075
2018-06-29T14:16:30.590Z,4090
2018-06-29T14:17:39.573Z,3910
2018-06-29T14:18:48.453Z,3725
2018-06-29T14:19:57.335Z,3735
2018-06-29T14:21:06.218Z,3675
2018-06-29T14:22:15.373Z,3710
2018-06-29T14:23:24.356Z,3980
2018-06-29T14:24:33.513Z,3845
2018-06-29T14:25:42.396Z,3640
2018-06-29T14:26:51.278Z,3750
2018-06-29T14:28:00.159Z,3755
2018-06-29T14:29:09.513Z,3670
2018-06-29T14:30:18.396Z,3685
2018-06-29T14:31:27.283Z,3785
2018-06-29T14:32:36.166Z,3755
2018-06-29T14:33:45.049Z,3850
2018-06-29T14:34:53.929Z,3775
2018-06-29T14:36:03.363Z,3720
2018-06-29T14:37:12.243Z,4060
2018-06-29T14:38:21.127Z,3715
2018-06-29T14:39:30.011Z,3780
2018-06-29T14:40:39.271Z,3720
2018-06-29T14:41:48.156Z,3680
2018-06-29T14:42:57.592Z,3765
2018-06-29T14:44:06.473Z,3595
2018-06-29T14:45:15.357Z,3495
2018-06-29T14:46:24.313Z,3705
2018-06-29T14:47:33.529Z,3690
2018-06-29T14:48:42.690Z,3685
2018-06-29T14:49:51.575Z,3485
2018-06-29T14:51:00.456Z,3270
2018-06-29T14:52:09.340Z,3500
2018-06-29T14:53:18.223Z,3470
2018-06-29T14:54:27.103Z,3405
2018-06-29T14:55:35.983Z,3495
2018-06-29T14:56:44.871Z,3610
2018-06-29T14:57:54.381Z,3465
2018-06-29T14:59:03.266Z,3410
2018-06-29T15:00:12.424Z,3735
2018-06-29T15:01:22.140Z,3460
2018-06-29T15:02:31.021Z,3385
2018-06-29T15:03:39.963Z,3295
2018-06-29T15:04:49.121Z,3125
2018-06-29T15:05:58.008Z,3205
2018-06-29T15:07:06.887Z,3330
2018-06-29T15:08:15.770Z,3205
2018-06-29T15:09:25.239Z,3155
2018-06-29T15:10:34.101Z,3200
2018-06-29T15:11:43.257Z,3240
2018-06-29T15:12:52.138Z,3110
2018-06-29T15:14:01.300Z,3010
2018-06-29T15:15:10.234Z,2930
2018-06-29T15:16:19.166Z,2975
2018-06-29T15:17:28.045Z,2960
2018-06-29T15:18:36.923Z,3010
2018-06-29T15:19:45.807Z,2985
2018-06-29T15:20:55.017Z,2950
2018-06-29T15:22:04.038Z,3100
2018-06-29T15:23:12.781Z,3370
2018-06-29T15:24:21.941Z,3000
2018-06-29T15:25:31.185Z,2845
2018-06-29T15:26:40.067Z,2875
2018-06-29T15:27:48.950Z,2870
2018-06-29T15:28:57.833Z,2935
2018-06-29T15:30:06.714Z,2845
2018-06-29T15:31:15.990Z,2835
2018-06-29T15:32:24.992Z,2925
2018-06-29T15:33:34.157Z,2845
2018-06-29T15:34:43.036Z,2715
2018-06-29T15:35:51.918Z,2875
2018-06-29T15:37:00.801Z,2880
2018-06-29T15:38:10.132Z,2700
2018-06-29T15:39:19.011Z,2620
2018-06-29T15:40:27.894Z,2690
2018-06-29T15:41:36.778Z,2715
2018-06-29T15:42:45.938Z,2750
2018-06-29T15:43:54.920Z,2595
2018-06-29T15:45:04.126Z,2675
2018-06-29T15:46:13.008Z,2650
2018-06-29T15:47:21.890Z,2625
2018-06-29T15:48:30.775Z,2635
2018-06-29T15:49:40.105Z,2665
2018-06-29T15:50:49.265Z,2585
2018-06-29T15:51:58.424Z,2550
2018-06-29T15:53:07.577Z,2655
2018-06-29T15:54:16.461Z,2645
2018-06-29T15:55:25.672Z,2585
2018-06-29T15:56:34.553Z,2750
2018-06-29T15:57:43.431Z,2710